createdAt,value
2023-02-27T00:00:22.179Z,102064.34
2023-02-27T00:02:49.865Z,102066.28
2023-02-27T00:05:16.519Z,102065.66
2023-02-27T00:07:42.909Z,102062.22
2023-02-27T00:10:09.853Z,102064.59
2023-02-27T00:12:37.781Z,102068.81
2023-02-27T00:15:05.292Z,102071.63
2023-02-27T00:17:31.821Z,102075.69
2023-02-27T00:19:58.112Z,102074.56
2023-02-27T00:22:24.420Z,102082.13
2023-02-27T00:24:50.778Z,102081.78
2023-02-27T00:27:17.122Z,102081.66
2023-02-27T00:29:43.430Z,102075.34
2023-02-27T00:32:09.875Z,102077.00
2023-02-27T00:34:36.300Z,102080.63
2023-02-27T00:37:02.789Z,102072.09
2023-02-27T00:39:29.105Z,102079.91
2023-02-27T00:41:55.394Z,102073.59
2023-02-27T00:44:21.716Z,102085.28
2023-02-27T00:46:48.087Z,102075.94
2023-02-27T00:49:14.476Z,102076.75
2023-02-27T00:51:40.794Z,102062.06
2023-02-27T00:54:07.116Z,102070.56
2023-02-27T00:56:34.643Z,102059.69
2023-02-27T00:59:00.956Z,102064.28
2023-02-27T01:01:27.619Z,102064.63
2023-02-27T01:03:54.110Z,102057.03
2023-02-27T01:06:20.456Z,102059.47
2023-02-27T01:08:46.825Z,102056.19
2023-02-27T01:11:13.139Z,102060.06
2023-02-27T01:13:39.520Z,102054.00
2023-02-27T01:16:06.151Z,102052.47
2023-02-27T01:18:32.485Z,102060.03
2023-02-27T01:20:58.797Z,102056.09
2023-02-27T01:23:25.110Z,102058.31
2023-02-27T01:25:51.480Z,102054.69
2023-02-27T01:28:17.796Z,102051.16
2023-02-27T01:30:44.409Z,102046.50
2023-02-27T01:33:10.756Z,102044.81
2023-02-27T01:35:37.036Z,102049.22
2023-02-27T01:38:03.367Z,102048.88
2023-02-27T01:40:29.689Z,102046.84
2023-02-27T01:42:55.993Z,102051.34
2023-02-27T01:45:22.271Z,102045.34
2023-02-27T01:47:52.201Z,102053.13
2023-02-27T01:50:19.423Z,102044.34
2023-02-27T01:52:48.977Z,102053.06
2023-02-27T01:55:15.807Z,102051.13
2023-02-27T01:57:45.217Z,102055.44
2023-02-27T02:00:12.294Z,102061.69
2023-02-27T02:02:40.654Z,102058.38
2023-02-27T02:05:07.367Z,102056.78
2023-02-27T02:07:35.680Z,102058.50
2023-02-27T02:10:02.406Z,102058.56
2023-02-27T02:12:30.280Z,102050.63
2023-02-27T02:14:56.585Z,102047.91
2023-02-27T02:17:41.157Z,102054.19
2023-02-27T02:20:26.152Z,102060.50
2023-02-27T02:23:06.808Z,102062.25
2023-02-27T02:25:36.011Z,102055.72
2023-02-27T02:28:05.326Z,102061.63
2023-02-27T02:30:31.673Z,102057.94
2023-02-27T02:33:24.355Z,102059.00
2023-02-27T02:35:53.671Z,102048.44
2023-02-27T02:38:28.757Z,102060.34
2023-02-27T02:41:13.812Z,102051.34
2023-02-27T02:44:02.162Z,102060.56
2023-02-27T02:46:39.024Z,102063.59
2023-02-27T02:49:11.388Z,102061.97
2023-02-27T02:51:37.701Z,102064.75
2023-02-27T02:54:12.496Z,102059.72
2023-02-27T02:56:41.424Z,102063.69
2023-02-27T02:59:12.892Z,102072.19
2023-02-27T03:01:42.484Z,102063.69
2023-02-27T03:04:14.849Z,102064.56
2023-02-27T03:06:44.946Z,102061.50
2023-02-27T03:09:11.254Z,102071.16
2023-02-27T03:11:40.632Z,102069.56
2023-02-27T03:14:10.675Z,102068.03
2023-02-27T03:16:45.634Z,102053.59
2023-02-27T03:19:18.540Z,102063.31
2023-02-27T03:21:44.832Z,102057.22
2023-02-27T03:24:23.047Z,102059.94
2023-02-27T03:26:51.866Z,102060.34
2023-02-27T03:29:26.362Z,102065.03
2023-02-27T03:31:53.215Z,102071.97
2023-02-27T03:34:26.061Z,102072.31
2023-02-27T03:36:55.423Z,102072.66
2023-02-27T03:39:35.971Z,102068.72
2023-02-27T03:42:14.644Z,102070.56
2023-02-27T03:44:43.972Z,102071.16
2023-02-27T03:47:10.281Z,102073.13
2023-02-27T03:49:36.618Z,102072.69
2023-02-27T03:52:03.833Z,102077.56
2023-02-27T03:54:33.657Z,102076.66
2023-02-27T03:57:04.585Z,102077.59
2023-02-27T03:59:31.785Z,102085.41
2023-02-27T04:01:58.695Z,102087.97
2023-02-27T04:04:27.662Z,102088.88
2023-02-27T04:07:16.118Z,102090.19
2023-02-27T04:10:00.940Z,102097.88
2023-02-27T04:12:27.245Z,102100.22
2023-02-27T04:14:59.712Z,102098.72
2023-02-27T04:17:26.622Z,102098.00
2023-02-27T04:20:13.537Z,102104.56
2023-02-27T04:22:55.627Z,102115.75
2023-02-27T04:25:24.872Z,102121.91
2023-02-27T04:27:54.249Z,102113.03
2023-02-27T04:30:26.243Z,102116.53
2023-02-27T04:33:09.392Z,102117.69
2023-02-27T04:35:42.777Z,102109.31
2023-02-27T04:38:17.974Z,102117.44
2023-02-27T04:41:04.587Z,102121.66
2023-02-27T04:43:31.755Z,102121.75
2023-02-27T04:45:59.813Z,102124.03
2023-02-27T04:48:28.276Z,102126.47
2023-02-27T04:51:00.176Z,102126.56
2023-02-27T04:53:31.247Z,102123.75
2023-02-27T04:56:02.309Z,102125.88
2023-02-27T04:58:32.276Z,102122.88
2023-02-27T05:01:01.177Z,102128.22
2023-02-27T05:03:31.849Z,102125.22
2023-02-27T05:06:00.117Z,102130.72
2023-02-27T05:08:26.400Z,102125.50
2023-02-27T05:10:58.626Z,102133.22
2023-02-27T05:13:28.369Z,102135.75
2023-02-27T05:15:58.377Z,102141.03
2023-02-27T05:18:25.243Z,102142.16
2023-02-27T05:20:56.145Z,102135.53
2023-02-27T05:23:30.370Z,102139.88
2023-02-27T05:26:13.401Z,102141.06
2023-02-27T05:28:59.966Z,102137.03
2023-02-27T05:31:32.627Z,102138.44
2023-02-27T05:34:12.282Z,102140.06
2023-02-27T05:36:41.995Z,102139.03
2023-02-27T05:39:09.952Z,102142.13
2023-02-27T05:41:42.762Z,102142.69
2023-02-27T05:44:14.761Z,102154.50
2023-02-27T05:47:00.690Z,102146.53
2023-02-27T05:49:30.163Z,102150.91
2023-02-27T05:51:58.194Z,102159.28
2023-02-27T05:54:29.391Z,102160.44
2023-02-27T05:56:57.406Z,102163.03
2023-02-27T05:59:26.771Z,102172.53
2023-02-27T06:01:53.178Z,102169.63
2023-02-27T06:04:19.734Z,102168.13
2023-02-27T06:06:46.121Z,102176.97
2023-02-27T06:09:12.551Z,102175.84
2023-02-27T06:11:38.874Z,102180.91
2023-02-27T06:14:05.172Z,102187.19
2023-02-27T06:16:31.563Z,102191.59
2023-02-27T06:18:57.944Z,102195.34
2023-02-27T06:21:24.273Z,102197.13
2023-02-27T06:23:50.665Z,102200.66
2023-02-27T06:26:17.548Z,102204.41
2023-02-27T06:28:43.826Z,102216.97
2023-02-27T06:31:10.216Z,102208.78
2023-02-27T06:33:36.580Z,102210.78
2023-02-27T06:36:02.951Z,102210.63
2023-02-27T06:38:29.285Z,102219.81
2023-02-27T06:40:55.568Z,102212.72
2023-02-27T06:43:24.890Z,102215.22
2023-02-27T06:45:53.857Z,102218.72
2023-02-27T06:48:20.187Z,102224.56
2023-02-27T06:50:50.521Z,102229.41
2023-02-27T06:53:16.872Z,102234.03
2023-02-27T06:55:43.225Z,102241.06
2023-02-27T06:58:09.540Z,102248.56
2023-02-27T07:00:35.856Z,102252.38
2023-02-27T07:03:04.388Z,102242.00
2023-02-27T07:05:31.354Z,102249.28
2023-02-27T07:07:58.703Z,102246.72
2023-02-27T07:10:25.685Z,102249.72
2023-02-27T07:12:52.013Z,102250.91
2023-02-27T07:15:18.367Z,102249.38
2023-02-27T07:17:44.682Z,102250.44
2023-02-27T07:20:11.590Z,102254.78
2023-02-27T07:22:38.793Z,102255.59
2023-02-27T07:25:05.373Z,102256.06
2023-02-27T07:27:31.952Z,102272.06
2023-02-27T07:29:58.377Z,102265.41
2023-02-27T07:32:24.765Z,102267.72
2023-02-27T07:34:51.093Z,102274.16
2023-02-27T07:37:17.444Z,102285.66
2023-02-27T07:39:44.910Z,102284.84
2023-02-27T07:42:11.504Z,102275.03
2023-02-27T07:44:37.839Z,102280.56
2023-02-27T07:47:04.183Z,102284.56
2023-02-27T07:49:30.521Z,102296.69
2023-02-27T07:51:56.946Z,102286.59
2023-02-27T07:54:23.321Z,102292.34
2023-02-27T07:56:49.649Z,102289.75
2023-02-27T07:59:15.994Z,102295.03
2023-02-27T08:01:42.331Z,102295.13
2023-02-27T08:04:08.739Z,102299.84
2023-02-27T08:06:35.061Z,102296.91
2023-02-27T08:09:01.523Z,102298.75
2023-02-27T08:11:28.165Z,102300.41
2023-02-27T08:14:02.572Z,102313.56
2023-02-27T08:16:30.800Z,102309.16
2023-02-27T08:18:57.610Z,102310.63
2023-02-27T08:21:23.948Z,102311.53
2023-02-27T08:23:50.276Z,102318.81
2023-02-27T08:26:16.595Z,102320.03
2023-02-27T08:28:43.151Z,102321.91
2023-02-27T08:31:09.545Z,102322.97
2023-02-27T08:33:36.006Z,102325.06
2023-02-27T08:36:02.583Z,102326.56
2023-02-27T08:38:28.944Z,102331.56
2023-02-27T08:40:55.333Z,102332.31
2023-02-27T08:43:22.276Z,102326.72
2023-02-27T08:45:49.206Z,102321.13
2023-02-27T08:48:17.203Z,102327.84
2023-02-27T08:50:43.952Z,102323.97
2023-02-27T08:53:10.779Z,102330.31
2023-02-27T08:55:37.256Z,102332.38
2023-02-27T08:58:03.550Z,102342.28
2023-02-27T09:00:30.862Z,102347.41
2023-02-27T09:02:57.277Z,102342.50
2023-02-27T09:05:23.627Z,102347.81
2023-02-27T09:07:50.057Z,102342.47
2023-02-27T09:10:17.756Z,102346.75
2023-02-27T09:12:44.280Z,102351.66
2023-02-27T09:15:11.423Z,102345.19
2023-02-27T09:17:38.015Z,102332.75
2023-02-27T09:20:04.935Z,102344.19
2023-02-27T09:22:31.276Z,102340.22
2023-02-27T09:24:57.598Z,102337.81
2023-02-27T09:27:24.163Z,102337.38
2023-02-27T09:29:55.404Z,102338.84
2023-02-27T09:32:25.434Z,102332.91
2023-02-27T09:34:51.861Z,102337.06
2023-02-27T09:37:21.328Z,102332.59
2023-02-27T09:39:47.806Z,102344.06
2023-02-27T09:42:22.995Z,102336.88
2023-02-27T09:44:50.755Z,102338.97
2023-02-27T09:47:23.424Z,102329.19
2023-02-27T09:49:55.326Z,102336.16
2023-02-27T09:52:21.626Z,102337.19
2023-02-27T09:54:48.610Z,102339.00
2023-02-27T09:57:24.493Z,102336.66
2023-02-27T09:59:53.271Z,102336.59
2023-02-27T10:02:29.739Z,102340.81
2023-02-27T10:05:14.572Z,102342.94
2023-02-27T10:08:01.018Z,102341.94
2023-02-27T10:10:36.322Z,102340.50
2023-02-27T10:13:14.828Z,102351.38
2023-02-27T10:15:43.623Z,102360.38
2023-02-27T10:18:28.430Z,102362.81
2023-02-27T10:21:02.481Z,102359.69
2023-02-27T10:23:44.000Z,102371.03
2023-02-27T10:26:26.300Z,102372.59
2023-02-27T10:28:52.682Z,102383.56
2023-02-27T10:31:24.414Z,102380.22
2023-02-27T10:33:51.788Z,102376.09
2023-02-27T10:36:32.615Z,102373.41
2023-02-27T10:39:03.519Z,102385.13
2023-02-27T10:41:30.774Z,102381.44
2023-02-27T10:43:58.339Z,102381.88
2023-02-27T10:46:27.380Z,102384.16
2023-02-27T10:48:54.240Z,102373.72
2023-02-27T10:51:28.377Z,102381.63
2023-02-27T10:54:13.975Z,102386.06
2023-02-27T10:56:40.615Z,102396.44
2023-02-27T10:59:08.129Z,102392.97
2023-02-27T11:01:45.229Z,102390.94
2023-02-27T11:04:12.455Z,102398.19
2023-02-27T11:06:38.932Z,102400.16
2023-02-27T11:09:23.173Z,102396.63
2023-02-27T11:11:50.258Z,102397.16
2023-02-27T11:14:19.312Z,102396.53
2023-02-27T11:16:50.457Z,102393.78
2023-02-27T11:19:25.791Z,102395.00
2023-02-27T11:22:04.455Z,102413.44
2023-02-27T11:24:31.082Z,102405.22
2023-02-27T11:27:03.703Z,102394.91
2023-02-27T11:29:30.087Z,102392.72
2023-02-27T11:32:13.394Z,102396.66
2023-02-27T11:34:46.326Z,102394.53
2023-02-27T11:37:18.829Z,102398.63
2023-02-27T11:39:49.426Z,102396.66
2023-02-27T11:42:17.831Z,102391.16
2023-02-27T11:44:53.830Z,102399.72
2023-02-27T11:47:24.859Z,102396.41
2023-02-27T11:50:06.528Z,102398.56
2023-02-27T11:52:53.113Z,102402.91
2023-02-27T11:55:25.734Z,102408.41
2023-02-27T11:58:05.203Z,102404.66
2023-02-27T12:00:36.550Z,102404.88
2023-02-27T12:03:21.358Z,102415.56
2023-02-27T12:05:50.273Z,102409.38
2023-02-27T12:08:27.744Z,102411.34
2023-02-27T12:10:55.586Z,102417.63
2023-02-27T12:13:31.583Z,102418.47
2023-02-27T12:16:10.267Z,102412.56
2023-02-27T12:18:36.586Z,102408.25
2023-02-27T12:21:02.904Z,102405.31
2023-02-27T12:23:35.373Z,102403.72
2023-02-27T12:26:05.729Z,102409.16
2023-02-27T12:28:50.862Z,102404.28
2023-02-27T12:31:20.237Z,102407.00
2023-02-27T12:33:53.355Z,102409.19
2023-02-27T12:36:19.739Z,102399.41
2023-02-27T12:38:46.124Z,102397.50
2023-02-27T12:41:19.004Z,102404.03
2023-02-27T12:44:04.074Z,102402.69
2023-02-27T12:47:08.992Z,102401.28
2023-02-27T12:49:38.162Z,102406.19
2023-02-27T12:52:07.420Z,102405.31
2023-02-27T12:54:46.537Z,102398.31
2023-02-27T12:57:31.874Z,102415.44
2023-02-27T13:00:01.212Z,102417.13
2023-02-27T13:02:36.618Z,102419.84
2023-02-27T13:05:24.053Z,102420.97
2023-02-27T13:08:09.396Z,102423.13
2023-02-27T13:10:54.253Z,102417.72
2023-02-27T13:13:26.069Z,102416.88
2023-02-27T13:15:59.277Z,102421.47
2023-02-27T13:18:48.169Z,102422.31
2023-02-27T13:21:17.332Z,102418.22
2023-02-27T13:23:49.846Z,102415.81
2023-02-27T13:26:23.105Z,102423.66
2023-02-27T13:28:50.328Z,102426.66
2023-02-27T13:31:27.043Z,102426.94
2023-02-27T13:34:04.542Z,102429.09
2023-02-27T13:36:51.107Z,102439.75
2023-02-27T13:39:56.254Z,102438.66
2023-02-27T13:42:28.875Z,102431.03
2023-02-27T13:44:56.442Z,102428.06
2023-02-27T13:47:40.302Z,102434.03
2023-02-27T13:50:18.884Z,102435.94
2023-02-27T13:52:46.764Z,102434.31
2023-02-27T13:55:27.114Z,102441.38
2023-02-27T13:57:57.563Z,102440.03
2023-02-27T14:00:25.323Z,102440.00
2023-02-27T14:03:10.647Z,102435.94
2023-02-27T14:05:39.153Z,102432.09
2023-02-27T14:08:10.326Z,102442.47
2023-02-27T14:10:37.576Z,102438.91
2023-02-27T14:13:05.154Z,102437.56
2023-02-27T14:15:31.940Z,102433.47
2023-02-27T14:18:12.374Z,102432.94
2023-02-27T14:20:42.137Z,102437.03
2023-02-27T14:23:17.510Z,102431.59
2023-02-27T14:25:54.549Z,102431.59
2023-02-27T14:28:39.845Z,102429.66
2023-02-27T14:31:08.745Z,102425.53
2023-02-27T14:33:43.819Z,102428.00
2023-02-27T14:36:17.075Z,102426.06
2023-02-27T14:38:43.604Z,102437.22
2023-02-27T14:41:14.963Z,102436.13
2023-02-27T14:43:44.873Z,102428.50
2023-02-27T14:46:14.402Z,102435.81
2023-02-27T14:48:40.842Z,102433.34
2023-02-27T14:51:07.395Z,102421.34
2023-02-27T14:53:34.708Z,102430.03
2023-02-27T14:56:00.996Z,102445.81
2023-02-27T14:58:28.274Z,102437.38
2023-02-27T15:01:03.325Z,102448.25
2023-02-27T15:03:34.608Z,102447.69
2023-02-27T15:06:02.030Z,102445.81
2023-02-27T15:08:29.579Z,102452.28
2023-02-27T15:10:57.233Z,102455.03
2023-02-27T15:13:29.835Z,102453.75
2023-02-27T15:16:16.745Z,102454.84
2023-02-27T15:18:45.567Z,102448.63
2023-02-27T15:21:14.750Z,102460.03
2023-02-27T15:23:41.320Z,102451.63
2023-02-27T15:26:12.687Z,102453.78
2023-02-27T15:28:39.092Z,102465.50
2023-02-27T15:31:08.194Z,102460.06
2023-02-27T15:33:34.779Z,102453.81
2023-02-27T15:36:01.490Z,102461.16
2023-02-27T15:38:32.761Z,102456.00
2023-02-27T15:41:00.419Z,102458.97
2023-02-27T15:43:27.697Z,102459.19
2023-02-27T15:45:54.682Z,102461.38
2023-02-27T15:48:21.718Z,102458.09
2023-02-27T15:50:58.464Z,102471.13
2023-02-27T15:53:26.298Z,102475.69
2023-02-27T15:55:53.982Z,102482.78
2023-02-27T15:58:24.652Z,102474.63
2023-02-27T16:01:02.131Z,102475.63
2023-02-27T16:03:33.051Z,102472.34
2023-02-27T16:06:00.298Z,102475.78
2023-02-27T16:08:28.290Z,102473.56
2023-02-27T16:10:54.762Z,102471.03
2023-02-27T16:13:40.082Z,102469.69
2023-02-27T16:16:28.179Z,102476.13
2023-02-27T16:18:56.798Z,102476.56
2023-02-27T16:21:27.227Z,102480.59
2023-02-27T16:23:54.113Z,102483.50
2023-02-27T16:26:20.855Z,102481.38
2023-02-27T16:29:00.083Z,102479.63
2023-02-27T16:31:39.609Z,102483.38
2023-02-27T16:34:26.177Z,102475.94
2023-02-27T16:36:58.723Z,102481.31
2023-02-27T16:39:25.196Z,102477.47
2023-02-27T16:41:52.293Z,102465.56
2023-02-27T16:44:18.583Z,102475.88
2023-02-27T16:46:45.066Z,102474.56
2023-02-27T16:49:22.386Z,102468.88
2023-02-27T16:51:48.876Z,102477.00
2023-02-27T16:54:16.542Z,102475.72
2023-02-27T16:56:44.440Z,102476.41
2023-02-27T16:59:22.700Z,102475.88
2023-02-27T17:01:49.513Z,102475.81
2023-02-27T17:04:25.285Z,102483.47
2023-02-27T17:06:53.186Z,102482.88
2023-02-27T17:09:19.650Z,102477.25
2023-02-27T17:11:46.092Z,102480.59
2023-02-27T17:14:12.670Z,102481.56
2023-02-27T17:16:39.190Z,102479.84
2023-02-27T17:19:05.934Z,102473.66
2023-02-27T17:21:35.135Z,102478.91
2023-02-27T17:24:02.202Z,102475.09
2023-02-27T17:26:29.368Z,102477.88
2023-02-27T17:28:56.406Z,102484.88
2023-02-27T17:31:24.125Z,102481.16
2023-02-27T17:33:51.110Z,102481.06
2023-02-27T17:36:18.023Z,102480.66
2023-02-27T17:38:44.374Z,102488.09
2023-02-27T17:41:12.185Z,102488.75
2023-02-27T17:43:39.012Z,102489.97
2023-02-27T17:46:07.969Z,102484.56
2023-02-27T17:48:35.510Z,102482.69
2023-02-27T17:51:05.484Z,102473.97
2023-02-27T17:53:31.832Z,102473.50
2023-02-27T17:55:58.205Z,102481.06
2023-02-27T17:58:24.566Z,102484.69
2023-02-27T18:00:50.874Z,102473.22
2023-02-27T18:03:17.236Z,102474.84
2023-02-27T18:05:52.903Z,102467.28
2023-02-27T18:08:19.560Z,102470.25
2023-02-27T18:10:46.792Z,102476.47
2023-02-27T18:13:13.160Z,102475.88
2023-02-27T18:15:39.524Z,102475.91
2023-02-27T18:18:05.863Z,102472.53
2023-02-27T18:20:32.207Z,102480.63
2023-02-27T18:22:58.523Z,102473.31
2023-02-27T18:25:24.921Z,102479.44
2023-02-27T18:27:51.294Z,102476.41
2023-02-27T18:30:19.432Z,102473.03
2023-02-27T18:32:45.827Z,102471.50
2023-02-27T18:35:12.503Z,102484.31
2023-02-27T18:37:39.109Z,102477.84
2023-02-27T18:40:06.063Z,102489.56
2023-02-27T18:42:32.715Z,102487.91
2023-02-27T18:44:59.147Z,102487.44
2023-02-27T18:47:25.726Z,102485.44
2023-02-27T18:49:52.088Z,102490.34
2023-02-27T18:52:18.530Z,102496.44
2023-02-27T18:54:44.835Z,102496.53
2023-02-27T18:57:11.185Z,102493.75
2023-02-27T18:59:37.731Z,102498.06
2023-02-27T19:02:04.265Z,102499.03
2023-02-27T19:04:33.642Z,102491.50
2023-02-27T19:07:00.352Z,102494.13
2023-02-27T19:09:32.566Z,102489.38
2023-02-27T19:11:59.260Z,102492.56
2023-02-27T19:14:25.896Z,102499.75
2023-02-27T19:16:52.313Z,102496.72
2023-02-27T19:19:19.018Z,102499.75
2023-02-27T19:21:47.829Z,102495.63
2023-02-27T19:24:16.517Z,102495.41
2023-02-27T19:26:42.839Z,102494.75
2023-02-27T19:29:09.188Z,102493.03
2023-02-27T19:31:35.508Z,102496.50
2023-02-27T19:34:02.001Z,102495.03
2023-02-27T19:36:29.704Z,102497.22
2023-02-27T19:38:56.799Z,102497.13
2023-02-27T19:41:23.840Z,102500.41
2023-02-27T19:43:50.948Z,102506.94
2023-02-27T19:46:23.671Z,102500.75
2023-02-27T19:48:50.641Z,102497.97
2023-02-27T19:51:16.926Z,102506.16
2023-02-27T19:53:45.866Z,102506.88
2023-02-27T19:56:13.315Z,102507.22
2023-02-27T19:58:39.810Z,102511.91
2023-02-27T20:01:06.691Z,102518.00
2023-02-27T20:03:33.332Z,102507.94
2023-02-27T20:05:59.895Z,102512.13
2023-02-27T20:08:33.078Z,102518.09
2023-02-27T20:11:00.466Z,102513.88
2023-02-27T20:13:27.432Z,102519.75
2023-02-27T20:15:57.729Z,102512.38
2023-02-27T20:18:24.745Z,102516.56
2023-02-27T20:21:01.706Z,102525.00
2023-02-27T20:23:28.153Z,102520.56
2023-02-27T20:25:54.650Z,102520.63
2023-02-27T20:28:21.289Z,102519.00
2023-02-27T20:30:47.665Z,102517.09
2023-02-27T20:33:14.026Z,102520.13
2023-02-27T20:35:40.604Z,102516.75
2023-02-27T20:38:07.745Z,102511.66
2023-02-27T20:40:34.169Z,102517.69
2023-02-27T20:43:00.539Z,102515.00
2023-02-27T20:45:28.176Z,102524.69
2023-02-27T20:47:55.134Z,102524.41
2023-02-27T20:50:21.725Z,102532.16
2023-02-27T20:52:48.056Z,102528.06
2023-02-27T20:55:14.382Z,102529.00
2023-02-27T20:57:40.857Z,102527.13
2023-02-27T21:00:11.706Z,102526.66
2023-02-27T21:02:38.004Z,102532.63
2023-02-27T21:05:04.609Z,102526.41
2023-02-27T21:07:31.117Z,102529.56
2023-02-27T21:09:57.457Z,102531.78
2023-02-27T21:12:23.807Z,102530.00
2023-02-27T21:14:50.161Z,102526.97
2023-02-27T21:17:16.631Z,102526.94
2023-02-27T21:19:43.049Z,102529.75
2023-02-27T21:22:11.113Z,102527.06
2023-02-27T21:24:37.777Z,102525.63
2023-02-27T21:27:04.087Z,102530.75
2023-02-27T21:29:30.375Z,102526.72
2023-02-27T21:31:56.904Z,102532.69
2023-02-27T21:34:24.749Z,102528.91
2023-02-27T21:36:52.083Z,102519.22
2023-02-27T21:39:20.086Z,102524.00
2023-02-27T21:41:46.935Z,102525.56
2023-02-27T21:44:14.921Z,102526.91
2023-02-27T21:46:41.286Z,102540.00
2023-02-27T21:49:10.033Z,102529.72
2023-02-27T21:51:40.904Z,102523.97
2023-02-27T21:54:09.069Z,102535.09
2023-02-27T21:56:35.514Z,102520.78
2023-02-27T21:59:02.132Z,102530.06
2023-02-27T22:01:29.341Z,102529.31
2023-02-27T22:03:56.656Z,102525.44
2023-02-27T22:06:23.922Z,102519.44
2023-02-27T22:08:57.520Z,102518.16
2023-02-27T22:11:24.426Z,102510.41
2023-02-27T22:13:50.781Z,102517.44
2023-02-27T22:16:17.684Z,102522.94
2023-02-27T22:18:44.239Z,102516.88
2023-02-27T22:21:12.788Z,102519.56
2023-02-27T22:23:39.161Z,102517.22
2023-02-27T22:26:09.866Z,102518.06
2023-02-27T22:28:38.936Z,102519.28
2023-02-27T22:31:25.594Z,102521.09
2023-02-27T22:33:53.829Z,102518.81
2023-02-27T22:36:24.227Z,102517.63
2023-02-27T22:38:50.925Z,102525.25
2023-02-27T22:41:22.022Z,102524.66
2023-02-27T22:43:48.442Z,102528.06
2023-02-27T22:46:16.929Z,102523.22
2023-02-27T22:48:43.348Z,102519.72
2023-02-27T22:51:14.374Z,102532.47
2023-02-27T22:53:41.661Z,102529.00
2023-02-27T22:56:09.715Z,102521.88
2023-02-27T22:58:39.282Z,102530.88
2023-02-27T23:01:14.815Z,102527.63
2023-02-27T23:03:41.576Z,102538.44
2023-02-27T23:06:08.710Z,102540.41
2023-02-27T23:08:35.355Z,102537.59
2023-02-27T23:11:01.684Z,102536.91
2023-02-27T23:13:28.026Z,102546.75
2023-02-27T23:15:54.793Z,102541.00
2023-02-27T23:18:21.173Z,102544.22
2023-02-27T23:20:47.493Z,102546.00
2023-02-27T23:23:13.849Z,102549.06
2023-02-27T23:25:40.176Z,102554.75
2023-02-27T23:28:06.714Z,102546.97
2023-02-27T23:30:33.489Z,102556.34
2023-02-27T23:32:59.821Z,102553.09
2023-02-27T23:35:26.675Z,102554.22
2023-02-27T23:37:54.159Z,102555.44
2023-02-27T23:40:21.760Z,102559.63
2023-02-27T23:42:48.097Z,102559.09
2023-02-27T23:45:23.490Z,102556.41
2023-02-27T23:47:54.063Z,102553.03
2023-02-27T23:50:28.320Z,102557.44
2023-02-27T23:52:55.433Z,102557.91
2023-02-27T23:55:21.900Z,102554.56
2023-02-27T23:57:51.550Z,102556.09
